Time;durP1;ratioP1;P1;durP2;ratioP2;P2;SDS_P1;SDS_P2;PMS_P1;PMS_P2;Temp;Humidity;BMP_temperature;BMP_pressure;BME280_temperature;BME280_humidity;BME280_pressure;Samples;Min_cycle;Max_cycle;Signal;HPM_P1;HPM_P2
2022/11/20 00:01:18;;;;;;;25.83;15.90;;;-2.00;99.90;;;;;;5018593;28;20237;-71
2022/11/20 00:03:45;;;;;;;31.87;17.03;;;-2.10;99.90;;;;;;5014769;28;20214;-72
2022/11/20 00:06:16;;;;;;;27.27;16.63;;;-2.10;99.90;;;;;;5017169;28;20209;-71
2022/11/20 00:08:43;;;;;;;29.30;16.43;;;-2.10;99.90;;;;;;5018128;28;20210;-71
2022/11/20 00:11:12;;;;;;;29.20;16.67;;;-2.10;99.90;;;;;;5016263;28;20234;-70
2022/11/20 00:13:39;;;;;;;28.90;17.87;;;-2.10;99.90;;;;;;5015459;28;20228;-71
2022/11/20 00:16:08;;;;;;;30.30;17.43;;;-2.10;99.90;;;;;;5016590;28;20656;-70
2022/11/20 00:18:35;;;;;;;26.10;16.63;;;-2.10;99.90;;;;;;5016701;28;20687;-71
2022/11/20 00:21:04;;;;;;;29.63;17.23;;;-2.10;99.90;;;;;;5016053;28;20660;-71
2022/11/20 00:23:32;;;;;;;27.70;17.33;;;-2.10;99.90;;;;;;5015788;28;20211;-70
2022/11/20 00:26:02;;;;;;;30.07;16.70;;;-2.10;99.90;;;;;;5012404;28;20211;-70
2022/11/20 00:28:29;;;;;;;28.77;16.80;;;-2.20;99.90;;;;;;5015028;28;20204;-70
2022/11/20 00:31:02;;;;;;;28.43;16.50;;;-2.20;99.90;;;;;;5015658;28;20213;-70
2022/11/20 00:33:29;;;;;;;28.23;17.37;;;-2.10;99.90;;;;;;5015436;28;20199;-71
2022/11/20 00:36:01;;;;;;;27.20;16.17;;;-2.10;99.90;;;;;;5022061;28;20226;-72
2022/11/20 00:38:27;;;;;;;28.13;16.37;;;-2.20;99.90;;;;;;5021281;28;20214;-70
2022/11/20 00:40:58;;;;;;;31.77;17.13;;;-2.10;99.90;;;;;;5025003;28;20219;-70
2022/11/20 00:43:25;;;;;;;35.57;18.10;;;-2.10;99.90;;;;;;5027415;28;20200;-69
2022/11/20 00:45:56;;;;;;;28.70;16.73;;;-2.10;99.90;;;;;;5022760;28;20215;-69
2022/11/20 00:48:23;;;;;;;29.87;16.77;;;-2.00;99.90;;;;;;5027528;28;20202;-71
2022/11/20 00:50:50;;;;;;;28.37;17.47;;;-2.00;99.90;;;;;;5029439;28;20222;-67
2022/11/20 00:53:17;;;;;;;30.03;16.23;;;-2.10;99.90;;;;;;5028156;28;20207;-69
2022/11/20 00:55:43;;;;;;;28.53;15.90;;;-2.00;99.90;;;;;;5025216;28;20511;-70
2022/11/20 00:58:11;;;;;;;29.43;16.53;;;-2.00;99.90;;;;;;5025862;28;20214;-69
2022/11/20 01:00:38;;;;;;;29.00;15.73;;;-2.00;99.90;;;;;;5029504;28;20229;-70
2022/11/20 01:03:05;;;;;;;25.93;16.63;;;-2.00;99.90;;;;;;5027951;28;20209;-70
2022/11/20 01:05:35;;;;;;;31.10;17.83;;;-2.00;99.90;;;;;;5027907;28;20207;-69
2022/11/20 01:08:02;;;;;;;34.73;18.27;;;-2.00;99.90;;;;;;5026005;28;20208;-71
2022/11/20 01:10:29;;;;;;;27.17;16.13;;;-2.00;99.90;;;;;;5031289;28;20192;-68
2022/11/20 01:15:38;;;;;;;23.63;13.83;;;-2.00;99.90;;;;;;5018109;28;20261;-70
2022/11/20 01:18:05;;;;;;;23.50;14.70;;;-2.00;99.90;;;;;;5020372;28;20200;-69
2022/11/20 01:20:35;;;;;;;25.90;15.50;;;-2.00;99.90;;;;;;5031049;28;20203;-70
2022/11/20 01:23:02;;;;;;;33.60;15.13;;;-2.10;99.90;;;;;;5031202;28;20211;-68
2022/11/20 01:25:29;;;;;;;25.30;15.53;;;-2.10;99.90;;;;;;5034038;28;20199;-68
2022/11/20 01:27:56;;;;;;;27.03;15.63;;;-2.10;99.90;;;;;;5027830;28;20662;-70
2022/11/20 01:30:22;;;;;;;27.77;15.67;;;-2.10;99.90;;;;;;5021024;28;20223;-70
2022/11/20 01:32:51;;;;;;;26.40;15.60;;;-2.10;99.90;;;;;;5016470;28;20211;-69
2022/11/20 01:35:17;;;;;;;29.53;16.50;;;-2.10;99.90;;;;;;5021824;28;20223;-68
2022/11/20 01:37:44;;;;;;;27.53;15.27;;;-2.10;99.90;;;;;;5022021;28;20207;-67
2022/11/20 01:40:12;;;;;;;28.03;15.37;;;-2.10;99.90;;;;;;5022001;28;20215;-71
2022/11/20 01:45:51;;;;;;;26.67;15.33;;;-2.00;99.90;;;;;;5029164;28;20310;-69
2022/11/20 01:48:20;;;;;;;26.73;15.57;;;-2.00;99.90;;;;;;5021232;28;20231;-69
2022/11/20 01:50:47;;;;;;;25.50;15.67;;;-2.00;99.90;;;;;;5025285;28;20231;-68
2022/11/20 01:53:18;;;;;;;26.03;14.60;;;-2.10;99.90;;;;;;5024153;28;20275;-69
2022/11/20 01:55:50;;;;;;;27.33;15.10;;;-2.00;99.90;;;;;;5026017;28;20223;-68
2022/11/20 01:58:17;;;;;;;26.37;15.87;;;-2.00;99.90;;;;;;5012826;28;20210;-69
2022/11/20 02:00:44;;;;;;;27.33;15.33;;;-2.00;99.90;;;;;;5026141;28;20310;-69
2022/11/20 02:03:14;;;;;;;24.23;14.73;;;-2.00;99.90;;;;;;5021525;28;20211;-71
2022/11/20 02:05:47;;;;;;;24.13;15.13;;;-2.00;99.90;;;;;;5015692;28;20207;-71
2022/11/20 02:08:14;;;;;;;26.83;15.30;;;-1.90;99.90;;;;;;5015850;28;20686;-70
2022/11/20 02:10:41;;;;;;;25.53;14.87;;;-1.90;99.90;;;;;;5019320;28;20204;-69
2022/11/20 02:15:53;;;;;;;29.90;15.43;;;-1.90;99.90;;;;;;5025622;28;20225;-67
2022/11/20 02:18:21;;;;;;;28.77;16.07;;;-1.90;99.90;;;;;;5024245;28;20464;-68
2022/11/20 02:20:54;;;;;;;26.80;16.53;;;-1.90;99.90;;;;;;5024983;28;20260;-69
2022/11/20 02:23:29;;;;;;;26.23;16.33;;;-1.90;99.90;;;;;;5025096;28;20179;-68
2022/11/20 02:25:58;;;;;;;29.00;16.80;;;-2.00;99.90;;;;;;5025906;28;20278;-69
2022/11/20 02:28:25;;;;;;;31.00;17.20;;;-2.00;99.90;;;;;;5030271;28;20207;-68
2022/11/20 02:30:52;;;;;;;28.13;16.70;;;-1.90;99.90;;;;;;5032782;28;20275;-69
2022/11/20 02:33:19;;;;;;;30.87;16.33;;;-1.90;99.90;;;;;;5031900;28;20520;-68
2022/11/20 02:35:47;;;;;;;27.70;16.20;;;-1.80;99.90;;;;;;5031919;28;20305;-69
2022/11/20 02:38:15;;;;;;;26.73;16.93;;;-1.90;99.90;;;;;;5032640;28;20211;-69
2022/11/20 02:40:42;;;;;;;25.63;15.97;;;-1.90;99.90;;;;;;5034231;28;20259;-70
2022/11/20 02:43:11;;;;;;;28.50;16.87;;;-1.90;99.90;;;;;;5033900;28;20270;-69
2022/11/20 02:45:38;;;;;;;30.37;16.00;;;-1.90;99.90;;;;;;5032982;28;20213;-70
2022/11/20 02:48:06;;;;;;;29.53;17.50;;;-1.90;99.90;;;;;;5025329;28;20306;-69
2022/11/20 02:50:33;;;;;;;30.57;16.40;;;-2.00;99.90;;;;;;5033438;28;20246;-69
2022/11/20 02:53:00;;;;;;;26.80;15.73;;;-2.00;99.90;;;;;;5033085;28;20187;-67
2022/11/20 02:55:26;;;;;;;28.90;16.50;;;-2.10;99.90;;;;;;5032796;28;20231;-69
2022/11/20 02:57:53;;;;;;;30.53;17.23;;;-2.10;99.90;;;;;;5031488;28;20235;-70
2022/11/20 03:00:21;;;;;;;29.37;16.70;;;-2.10;99.90;;;;;;5035564;28;20226;-69
2022/11/20 03:02:49;;;;;;;29.40;16.63;;;-2.10;99.90;;;;;;5032158;28;20199;-69
2022/11/20 03:05:15;;;;;;;30.80;15.77;;;-2.20;99.90;;;;;;5033065;28;20200;-70
2022/11/20 03:07:43;;;;;;;28.97;16.20;;;-2.20;99.90;;;;;;5285726;23;20245;-70
2022/11/20 03:10:10;;;;;;;30.27;16.73;;;-2.20;99.90;;;;;;5024203;28;20211;-71
2022/11/20 03:12:37;;;;;;;25.57;14.83;;;-2.20;99.90;;;;;;5016992;28;20274;-71
2022/11/20 03:15:05;;;;;;;24.97;15.60;;;-2.30;99.90;;;;;;5017853;28;20226;-70
2022/11/20 03:17:34;;;;;;;30.50;15.97;;;-2.30;99.90;;;;;;5025932;28;20195;-67
2022/11/20 03:20:01;;;;;;;26.93;16.90;;;-2.40;99.90;;;;;;5034145;28;20259;-68
2022/11/20 03:22:29;;;;;;;23.43;15.00;;;-2.40;99.90;;;;;;5031203;28;20205;-68
2022/11/20 03:24:56;;;;;;;26.73;15.20;;;-2.40;99.90;;;;;;5026276;28;20191;-69
2022/11/20 03:27:23;;;;;;;30.27;16.63;;;-2.40;99.90;;;;;;5022384;28;20208;-72
2022/11/20 03:29:50;;;;;;;25.60;16.17;;;-2.40;99.90;;;;;;5027082;28;20215;-68
2022/11/20 03:32:16;;;;;;;29.67;17.03;;;-2.40;99.90;;;;;;5032131;28;20183;-69
2022/11/20 03:34:45;;;;;;;29.53;16.57;;;-2.40;99.90;;;;;;5032079;28;20230;-68
2022/11/20 03:37:11;;;;;;;28.13;16.23;;;-2.40;99.90;;;;;;5027023;28;20271;-69
2022/11/20 03:39:38;;;;;;;31.10;17.10;;;-2.40;99.90;;;;;;5024611;28;20207;-70
2022/11/20 03:42:44;;;;;;;27.43;17.10;;;-2.40;99.90;;;;;;5025307;28;20226;-69
2022/11/20 03:44:52;;;;;;;29.27;17.10;;;-2.40;99.90;;;;;;5003703;28;20230;-71
2022/11/20 03:47:19;;;;;;;30.83;17.87;;;-2.50;99.90;;;;;;5010823;28;20222;-71
2022/11/20 03:49:47;;;;;;;30.20;17.33;;;-2.50;99.90;;;;;;5012319;28;20212;-69
2022/11/20 03:52:14;;;;;;;26.67;17.13;;;-2.50;99.90;;;;;;5021207;28;20629;-69
2022/11/20 03:54:40;;;;;;;28.47;17.43;;;-2.60;99.90;;;;;;5026471;28;20227;-70
2022/11/20 03:57:07;;;;;;;37.70;19.20;;;-2.60;99.90;;;;;;5025965;28;20227;-71
2022/11/20 03:59:34;;;;;;;31.20;18.23;;;-2.70;99.90;;;;;;5028686;28;20597;-69
2022/11/20 04:02:01;;;;;;;29.00;18.10;;;-2.70;99.90;;;;;;5027683;28;20215;-70
2022/11/20 04:04:28;;;;;;;31.43;18.50;;;-2.70;99.90;;;;;;5029168;28;20211;-69
2022/11/20 04:06:56;;;;;;;29.43;18.03;;;-2.70;99.90;;;;;;5020052;28;20237;-69
2022/11/20 04:09:23;;;;;;;39.70;20.03;;;-2.80;99.90;;;;;;5013702;28;20286;-71
2022/11/20 04:11:49;;;;;;;31.90;18.10;;;-2.80;99.90;;;;;;5223937;23;20347;-69
2022/11/20 04:14:17;;;;;;;33.43;18.23;;;-2.80;99.90;;;;;;5075969;23;20235;-68
2022/11/20 04:16:44;;;;;;;35.63;18.80;;;-2.80;99.90;;;;;;5033180;28;20210;-67
2022/11/20 04:19:14;;;;;;;32.33;18.17;;;-2.80;99.90;;;;;;5036253;28;20259;-69
2022/11/20 04:21:41;;;;;;;34.43;18.53;;;-2.80;99.90;;;;;;5033366;28;20218;-69
2022/11/20 04:24:10;;;;;;;33.53;18.90;;;-2.80;99.90;;;;;;5030923;28;20203;-69
2022/11/20 04:26:37;;;;;;;33.83;18.27;;;-2.80;99.90;;;;;;5028723;28;20198;-70
2022/11/20 04:29:04;;;;;;;32.63;18.17;;;-2.80;99.90;;;;;;5027011;28;20262;-70
2022/11/20 04:31:33;;;;;;;35.50;17.90;;;-2.80;99.90;;;;;;5028224;28;20275;-69
2022/11/20 04:34:01;;;;;;;30.80;17.33;;;-2.90;99.90;;;;;;5028207;28;20218;-70
2022/11/20 04:36:30;;;;;;;34.53;17.80;;;-2.80;99.90;;;;;;5025763;28;20299;-69
2022/11/20 04:38:58;;;;;;;34.27;17.67;;;-2.90;99.90;;;;;;5027894;28;20190;-70
2022/11/20 04:41:28;;;;;;;33.33;17.90;;;-2.90;99.90;;;;;;5030852;28;20416;-70
2022/11/20 04:43:59;;;;;;;28.90;16.60;;;-2.90;99.90;;;;;;5030762;28;20211;-70
2022/11/20 04:46:26;;;;;;;28.63;15.77;;;-2.90;99.90;;;;;;5022757;28;20195;-69
2022/11/20 04:48:54;;;;;;;31.47;17.50;;;-2.90;99.90;;;;;;5029754;28;20226;-69
2022/11/20 04:51:20;;;;;;;30.67;18.10;;;-2.80;99.90;;;;;;5027024;28;20282;-71
2022/11/20 04:53:47;;;;;;;30.30;17.13;;;-2.90;99.90;;;;;;5029065;28;20250;-69
2022/11/20 04:56:14;;;;;;;24.97;15.03;;;-2.90;99.90;;;;;;5031142;28;20219;-69
2022/11/20 04:58:42;;;;;;;24.87;15.63;;;-2.90;99.90;;;;;;5029552;28;20208;-70
2022/11/20 05:06:22;;;;;;;25.30;16.00;;;-2.80;99.90;;;;;;5459265;22;20229;-69
2022/11/20 05:11:24;;;;;;;27.03;15.77;;;-2.80;99.90;;;;;;5544571;22;20246;-69
2022/11/20 05:13:53;;;;;;;23.93;14.60;;;-2.80;99.90;;;;;;5274636;22;20299;-67
2022/11/20 05:24:05;;;;;;;27.63;15.57;;;-2.80;99.90;;;;;;5698092;22;20450;-68
2022/11/20 05:31:41;;;;;;;26.33;14.83;;;-2.80;99.90;;;;;;5066373;22;20238;-68
2022/11/20 05:34:08;;;;;;;27.77;15.57;;;-2.80;99.90;;;;;;5296514;22;20301;-68
2022/11/20 05:36:35;;;;;;;26.80;16.43;;;-2.90;99.90;;;;;;5065563;22;20229;-68
2022/11/20 05:39:02;;;;;;;25.93;15.03;;;-2.90;99.90;;;;;;5082023;22;20250;-69
2022/11/20 05:41:29;;;;;;;25.93;15.53;;;-2.90;99.90;;;;;;5051501;28;20256;-69
2022/11/20 05:43:57;;;;;;;26.03;15.40;;;-2.90;99.90;;;;;;5038430;28;20214;-70
2022/11/20 05:46:24;;;;;;;24.70;15.30;;;-2.90;99.90;;;;;;5075742;22;20238;-69
2022/11/20 05:48:52;;;;;;;27.63;15.90;;;-2.90;99.90;;;;;;5051625;28;20238;-72
2022/11/20 05:51:20;;;;;;;25.13;14.90;;;-2.90;99.90;;;;;;5035607;28;20322;-71
2022/11/20 05:53:46;;;;;;;25.37;15.07;;;-2.90;99.90;;;;;;5037148;28;20297;-72
2022/11/20 05:56:15;;;;;;;27.23;15.40;;;-3.00;99.90;;;;;;5034676;28;20329;-73
2022/11/20 05:58:42;;;;;;;28.03;15.93;;;-2.90;99.90;;;;;;5039973;28;20205;-69
2022/11/20 06:01:11;;;;;;;25.77;15.93;;;-2.90;99.90;;;;;;5042114;28;20242;-69
2022/11/20 06:03:39;;;;;;;24.43;15.47;;;-3.00;99.90;;;;;;5043987;28;20230;-69
2022/11/20 06:06:07;;;;;;;27.27;15.97;;;-3.00;99.90;;;;;;5042262;28;20217;-70
2022/11/20 06:08:35;;;;;;;26.00;15.37;;;-3.00;99.90;;;;;;5040606;28;20210;-70
2022/11/20 06:11:05;;;;;;;29.80;16.43;;;-3.00;99.90;;;;;;5040699;28;20199;-68
2022/11/20 06:13:32;;;;;;;22.87;15.00;;;-3.00;99.90;;;;;;5045778;28;20203;-68
2022/11/20 06:15:59;;;;;;;28.50;16.67;;;-3.00;99.90;;;;;;5035627;28;20222;-69
2022/11/20 06:18:27;;;;;;;31.13;17.13;;;-3.00;99.90;;;;;;5047883;28;20215;-71
2022/11/20 06:21:01;;;;;;;27.10;15.67;;;-3.10;99.90;;;;;;5034636;28;20518;-69
2022/11/20 06:23:31;;;;;;;31.10;16.73;;;-3.10;99.90;;;;;;5044550;28;20230;-68
2022/11/20 06:25:58;;;;;;;28.93;15.57;;;-3.10;99.90;;;;;;5043381;28;20195;-69
2022/11/20 06:28:25;;;;;;;27.40;16.27;;;-3.10;99.90;;;;;;5037989;28;20289;-69
2022/11/20 06:30:52;;;;;;;26.77;14.90;;;-3.10;99.90;;;;;;5043886;28;20237;-70
2022/11/20 06:33:18;;;;;;;30.07;16.70;;;-3.00;99.90;;;;;;5047285;28;20211;-69
2022/11/20 06:35:45;;;;;;;31.57;16.73;;;-3.00;99.90;;;;;;5043784;28;20222;-69
2022/11/20 06:38:12;;;;;;;30.43;16.13;;;-3.00;99.90;;;;;;5046592;28;20279;-70
2022/11/20 06:40:42;;;;;;;32.93;16.00;;;-3.00;99.90;;;;;;5045371;28;20214;-70
2022/11/20 06:43:09;;;;;;;29.63;16.13;;;-3.00;99.90;;;;;;5043745;28;20210;-70
2022/11/20 06:45:35;;;;;;;27.30;16.77;;;-3.00;99.90;;;;;;5037290;28;20713;-70
2022/11/20 06:48:02;;;;;;;27.00;15.60;;;-3.00;99.90;;;;;;5038896;28;20543;-70
2022/11/20 06:50:29;;;;;;;32.77;17.13;;;-2.90;99.90;;;;;;5029165;28;20222;-69
2022/11/20 06:52:56;;;;;;;26.30;16.10;;;-2.90;99.90;;;;;;5029877;28;20225;-70
2022/11/20 06:55:23;;;;;;;28.60;16.73;;;-2.80;99.90;;;;;;5029212;28;20249;-69
2022/11/20 06:57:51;;;;;;;27.23;15.57;;;-2.80;99.90;;;;;;5030644;28;20221;-68
2022/11/20 07:00:18;;;;;;;35.33;16.10;;;-2.70;99.90;;;;;;5029320;28;20581;-66
2022/11/20 07:02:45;;;;;;;28.10;16.03;;;-2.60;99.90;;;;;;5030198;28;20614;-68
2022/11/20 07:05:12;;;;;;;30.27;16.77;;;-2.50;99.90;;;;;;5029393;28;20209;-71
2022/11/20 07:07:39;;;;;;;28.53;16.33;;;-2.30;99.90;;;;;;5030237;28;20210;-69
2022/11/20 07:10:07;;;;;;;30.53;17.13;;;-2.10;99.90;;;;;;5030544;28;20210;-68
2022/11/20 07:12:33;;;;;;;32.60;17.73;;;-2.00;99.90;;;;;;5029384;28;20203;-69
2022/11/20 07:15:01;;;;;;;30.73;16.37;;;-1.90;99.90;;;;;;5030493;28;20218;-68
2022/11/20 07:17:28;;;;;;;29.10;17.70;;;-1.80;99.90;;;;;;5030262;28;20224;-68
2022/11/20 07:19:55;;;;;;;32.93;17.20;;;-1.70;99.90;;;;;;5026901;28;20206;-68
2022/11/20 07:22:22;;;;;;;27.83;16.63;;;-1.70;99.90;;;;;;5030005;28;20539;-68
2022/11/20 07:24:49;;;;;;;28.13;16.47;;;-1.60;99.90;;;;;;5031097;28;20487;-68
2022/11/20 07:27:16;;;;;;;28.83;17.23;;;-1.50;99.90;;;;;;5029863;28;20202;-69
2022/11/20 07:29:42;;;;;;;28.53;17.23;;;-1.40;99.90;;;;;;5028607;28;20233;-68
2022/11/20 07:32:11;;;;;;;31.63;17.93;;;-1.20;99.90;;;;;;5028203;28;20210;-69
2022/11/20 07:34:37;;;;;;;30.00;17.80;;;-1.10;99.90;;;;;;5029090;28;20207;-67
2022/11/20 07:37:04;;;;;;;30.80;17.27;;;-0.90;99.90;;;;;;5027694;28;20597;-69
2022/11/20 07:39:31;;;;;;;28.87;16.80;;;-0.70;99.90;;;;;;5030346;28;20656;-69
2022/11/20 07:41:58;;;;;;;26.90;17.37;;;-0.60;99.90;;;;;;5030940;28;20567;-68
2022/11/20 07:44:24;;;;;;;31.93;19.03;;;-0.50;99.90;;;;;;5022111;28;20213;-68
2022/11/20 07:46:51;;;;;;;27.83;17.63;;;-0.30;99.90;;;;;;5022178;28;20242;-69
2022/11/20 07:49:19;;;;;;;27.03;17.13;;;-0.30;99.90;;;;;;5025984;28;20214;-70
2022/11/20 07:51:46;;;;;;;30.77;17.37;;;-0.10;99.90;;;;;;5034055;28;20214;-69
2022/11/20 07:54:13;;;;;;;32.57;18.87;;;0.00;99.90;;;;;;5036138;28;20210;-69
2022/11/20 07:56:40;;;;;;;27.80;16.67;;;0.20;99.90;;;;;;5040484;28;20710;-67
2022/11/20 07:59:06;;;;;;;29.10;17.87;;;-0.30;99.90;;;;;;5043361;28;20577;-69
2022/11/20 08:01:33;;;;;;;36.60;19.33;;;0.30;99.90;;;;;;5031148;28;20651;-70
2022/11/20 08:04:00;;;;;;;26.40;17.20;;;0.40;99.90;;;;;;5033873;28;20574;-71
2022/11/20 08:06:28;;;;;;;31.13;19.37;;;0.50;99.90;;;;;;5033952;28;20198;-70
2022/11/20 08:08:55;;;;;;;30.97;17.83;;;0.60;99.90;;;;;;5033893;28;20210;-70
2022/11/20 08:14:15;;;;;;;29.03;17.80;;;0.90;99.90;;;;;;5027494;28;20588;-74
2022/11/20 08:16:44;;;;;;;33.43;18.90;;;1.00;99.90;;;;;;5024028;28;20697;-75
2022/11/20 08:19:11;;;;;;;32.97;18.90;;;1.10;99.90;;;;;;5025681;28;20206;-73
2022/11/20 08:21:40;;;;;;;31.83;18.47;;;1.30;99.90;;;;;;5029638;28;20513;-75
2022/11/20 08:24:08;;;;;;;31.07;18.73;;;1.50;99.90;;;;;;5025681;28;20298;-71
2022/11/20 08:26:35;;;;;;;31.17;18.33;;;1.60;99.90;;;;;;5023063;28;20206;-75
2022/11/20 08:29:05;;;;;;;29.23;19.00;;;1.90;99.90;;;;;;5021186;28;20200;-73
2022/11/20 08:31:33;;;;;;;29.30;19.37;;;2.40;99.90;;;;;;5029284;28;20209;-73
2022/11/20 08:34:00;;;;;;;31.60;19.97;;;3.20;99.90;;;;;;5028552;28;20221;-73
2022/11/20 08:36:28;;;;;;;33.63;19.07;;;3.80;99.90;;;;;;5022641;28;20734;-73
2022/11/20 08:38:57;;;;;;;32.57;20.37;;;4.60;99.90;;;;;;5033474;28;20256;-73
2022/11/20 08:41:26;;;;;;;31.30;19.27;;;6.10;99.90;;;;;;5033674;28;20203;-73
2022/11/20 08:43:56;;;;;;;33.93;20.97;;;8.50;99.90;;;;;;5031082;28;20216;-75
2022/11/20 08:46:24;;;;;;;32.13;20.70;;;10.80;92.50;;;;;;5031365;28;20238;-74
2022/11/20 08:48:51;;;;;;;29.97;20.27;;;12.90;75.80;;;;;;5029086;28;20224;-72
2022/11/20 08:51:18;;;;;;;30.63;20.87;;;14.50;61.90;;;;;;5032101;28;20221;-76
2022/11/20 08:53:45;;;;;;;27.17;20.33;;;15.90;55.70;;;;;;5032308;28;20655;-72
2022/11/20 08:56:14;;;;;;;27.97;20.73;;;17.00;52.20;;;;;;5032934;28;20222;-73
2022/11/20 08:58:41;;;;;;;28.77;22.10;;;18.30;48.40;;;;;;5025300;28;20626;-74
2022/11/20 09:01:08;;;;;;;29.97;21.90;;;19.00;44.70;;;;;;5023153;28;20262;-74
2022/11/20 09:03:36;;;;;;;28.42;21.58;;;19.60;43.40;;;;;;5024754;28;20217;-74
2022/11/20 09:06:05;;;;;;;28.02;20.88;;;20.30;41.80;;;;;;5033141;28;20205;-73
2022/11/20 09:08:33;;;;;;;27.65;21.58;;;20.60;39.90;;;;;;5036021;28;20234;-69
2022/11/20 09:11:00;;;;;;;28.77;22.33;;;20.90;39.70;;;;;;5034936;28;20229;-70
2022/11/20 09:13:29;;;;;;;31.58;22.70;;;21.10;39.30;;;;;;5034872;28;20226;-69
2022/11/20 09:15:58;;;;;;;28.17;22.38;;;21.60;38.20;;;;;;5030560;28;20638;-73
2022/11/20 09:18:25;;;;;;;32.08;22.67;;;22.20;37.00;;;;;;5033403;28;20274;-70
2022/11/20 09:20:52;;;;;;;30.38;22.65;;;23.00;36.50;;;;;;5031424;28;20210;-69
2022/11/20 09:23:19;;;;;;;29.70;22.30;;;23.00;34.90;;;;;;5032119;28;20202;-75
2022/11/20 09:25:46;;;;;;;28.63;22.92;;;22.80;34.50;;;;;;5033018;28;20202;-71
2022/11/20 09:28:13;;;;;;;27.85;22.88;;;22.40;33.40;;;;;;5030800;28;20220;-69
2022/11/20 09:30:41;;;;;;;30.85;23.38;;;21.70;33.60;;;;;;5030870;28;20226;-70
2022/11/20 09:33:08;;;;;;;30.08;24.63;;;21.00;34.70;;;;;;5031371;28;20222;-71
2022/11/20 09:35:35;;;;;;;28.55;22.45;;;20.50;34.70;;;;;;5031597;28;20222;-66
2022/11/20 09:38:07;;;;;;;28.70;22.83;;;20.40;34.90;;;;;;5026383;28;20226;-67
2022/11/20 09:40:36;;;;;;;30.80;24.00;;;20.80;35.80;;;;;;5031049;28;20195;-73
2022/11/20 09:43:10;;;;;;;26.75;22.10;;;21.30;35.10;;;;;;5030294;28;20271;-73
2022/11/20 09:45:49;;;;;;;30.45;23.80;;;22.30;35.10;;;;;;5025277;28;20221;-70
2022/11/20 09:48:27;;;;;;;28.27;23.10;;;23.40;33.40;;;;;;5022896;28;20210;-69
2022/11/20 09:51:01;;;;;;;28.98;24.02;;;24.40;32.60;;;;;;5019634;28;20213;-67
2022/11/20 09:53:36;;;;;;;30.08;24.10;;;25.10;32.10;;;;;;5021581;28;20223;-67
2022/11/20 09:56:04;;;;;;;30.73;24.63;;;25.90;31.10;;;;;;5030654;28;20202;-67
2022/11/20 09:58:36;;;;;;;30.08;24.15;;;26.30;30.70;;;;;;5025531;28;20633;-72
2022/11/20 10:01:11;;;;;;;29.80;23.83;;;27.00;30.00;;;;;;5027658;28;20652;-66
2022/11/20 10:03:46;;;;;;;28.45;23.77;;;27.30;29.50;;;;;;5026962;28;20210;-68
2022/11/20 10:06:17;;;;;;;26.83;23.25;;;26.80;29.20;;;;;;5026763;28;20614;-67
2022/11/20 10:08:49;;;;;;;29.00;24.67;;;26.00;29.50;;;;;;5026454;28;20294;-70
2022/11/20 10:11:23;;;;;;;27.48;22.77;;;25.70;30.00;;;;;;5024698;28;20592;-70
2022/11/20 10:13:58;;;;;;;28.60;23.45;;;25.90;29.60;;;;;;5023342;28;20203;-70
2022/11/20 10:16:33;;;;;;;27.58;23.00;;;25.90;29.60;;;;;;5028159;28;20256;-70
2022/11/20 10:19:12;;;;;;;28.60;25.42;;;26.00;29.90;;;;;;5027337;28;20449;-69
2022/11/20 10:21:48;;;;;;;30.42;26.08;;;25.90;29.10;;;;;;5025926;28;20603;-70
2022/11/20 10:24:32;;;;;;;27.83;23.63;;;25.50;29.20;;;;;;5026584;28;20210;-70
2022/11/20 10:27:14;;;;;;;27.02;23.00;;;25.90;29.70;;;;;;5018964;28;20543;-72
2022/11/20 10:29:44;;;;;;;29.67;25.83;;;26.80;28.90;;;;;;5023973;28;20555;-70
2022/11/20 10:32:17;;;;;;;27.25;22.52;;;27.00;28.50;;;;;;5026395;28;20644;-72
2022/11/20 10:34:51;;;;;;;26.35;22.85;;;27.50;28.60;;;;;;5030157;28;20612;-69
2022/11/20 10:37:23;;;;;;;23.98;21.33;;;27.60;28.30;;;;;;5024588;28;21154;-68
2022/11/20 10:39:55;;;;;;;26.30;22.10;;;27.80;28.00;;;;;;5024177;28;20225;-73
2022/11/20 10:42:30;;;;;;;28.60;22.65;;;27.70;28.00;;;;;;5027976;28;20203;-72
2022/11/20 10:45:05;;;;;;;26.63;21.70;;;27.70;28.10;;;;;;5024255;28;20210;-69
2022/11/20 10:47:33;;;;;;;24.70;21.90;;;28.20;27.50;;;;;;5029926;28;20222;-71
2022/11/20 10:50:05;;;;;;;24.45;21.92;;;28.30;27.30;;;;;;5027667;28;20211;-70
2022/11/20 10:52:43;;;;;;;25.70;21.60;;;28.30;27.70;;;;;;5026744;28;20211;-71
2022/11/20 10:55:23;;;;;;;25.08;22.23;;;28.20;27.20;;;;;;5026791;28;20207;-70
2022/11/20 10:57:57;;;;;;;24.27;21.73;;;28.20;27.40;;;;;;5025460;28;20658;-72
2022/11/20 11:00:24;;;;;;;26.25;21.42;;;28.20;27.50;;;;;;5030014;28;20288;-69
2022/11/20 11:02:54;;;;;;;23.73;21.00;;;28.60;27.50;;;;;;5029029;28;20210;-68
2022/11/20 11:05:34;;;;;;;23.20;20.75;;;28.70;27.10;;;;;;5029012;28;20202;-69
2022/11/20 11:08:01;;;;;;;23.98;21.33;;;28.70;27.20;;;;;;5031887;28;20198;-72
2022/11/20 11:10:37;;;;;;;22.98;20.55;;;28.50;27.10;;;;;;5027347;28;20206;-70
2022/11/20 11:13:04;;;;;;;23.23;20.80;;;28.70;26.80;;;;;;5031590;28;20198;-73
2022/11/20 11:15:38;;;;;;;22.92;20.00;;;28.40;26.90;;;;;;5028800;28;20210;-68
2022/11/20 11:18:10;;;;;;;25.65;21.73;;;28.50;26.60;;;;;;5040991;28;20577;-73
2022/11/20 11:20:37;;;;;;;23.95;21.45;;;28.20;26.80;;;;;;5039193;28;20266;-76
2022/11/20 11:23:05;;;;;;;23.48;20.67;;;28.40;27.10;;;;;;5031011;28;20566;-70
2022/11/20 11:25:34;;;;;;;22.65;20.25;;;28.50;26.90;;;;;;5035968;28;20214;-72
2022/11/20 11:28:03;;;;;;;23.52;21.00;;;29.00;26.70;;;;;;5020603;28;20256;-72
2022/11/20 11:30:41;;;;;;;23.13;20.73;;;29.40;25.90;;;;;;5029933;28;20210;-71
2022/11/20 11:33:19;;;;;;;24.25;19.88;;;29.40;26.20;;;;;;5029429;28;20210;-71
2022/11/20 11:35:48;;;;;;;22.95;20.10;;;29.80;26.10;;;;;;5028821;28;20213;-72
2022/11/20 11:38:20;;;;;;;23.67;21.17;;;29.80;25.40;;;;;;5029110;28;20230;-71
2022/11/20 11:40:48;;;;;;;26.48;21.52;;;29.10;25.40;;;;;;5028575;28;20213;-69
2022/11/20 11:46:23;;;;;;;24.25;21.65;;;24.80;26.20;;;;;;5023919;28;20728;-70
2022/11/20 11:48:58;;;;;;;26.77;20.77;;;21.80;27.50;;;;;;5027733;28;20737;-72
2022/11/20 11:51:30;;;;;;;25.45;20.98;;;19.40;29.30;;;;;;5029159;28;20205;-72
2022/11/20 11:53:59;;;;;;;24.35;21.13;;;17.40;31.00;;;;;;5029022;28;20687;-71
2022/11/20 11:56:28;;;;;;;27.50;21.27;;;15.70;33.10;;;;;;5019348;28;20211;-73
2022/11/20 11:59:00;;;;;;;26.90;20.83;;;14.00;35.10;;;;;;5027371;28;20623;-73
2022/11/20 12:01:33;;;;;;;27.73;20.97;;;12.60;36.90;;;;;;5029019;28;20539;-72
2022/11/20 12:04:08;;;;;;;28.50;19.77;;;11.30;38.80;;;;;;5029116;28;20856;-72
2022/11/20 12:06:40;;;;;;;28.13;20.77;;;10.20;40.30;;;;;;5028751;28;20209;-73
2022/11/20 12:09:10;;;;;;;30.37;20.40;;;9.40;43.20;;;;;;5027737;28;20203;-71
2022/11/20 12:11:45;;;;;;;32.13;21.13;;;8.70;45.20;;;;;;5028215;28;20225;-72
2022/11/20 12:14:19;;;;;;;27.57;20.53;;;8.10;46.20;;;;;;5015616;28;20206;-73
2022/11/20 12:16:46;;;;;;;28.93;19.73;;;7.70;47.10;;;;;;5026903;28;20210;-72
2022/11/20 12:19:15;;;;;;;29.10;18.63;;;7.20;48.10;;;;;;5028479;28;20214;-73
2022/11/20 12:21:54;;;;;;;29.50;18.73;;;6.80;49.30;;;;;;5028969;28;20691;-73
2022/11/20 12:24:43;;;;;;;29.17;18.70;;;6.40;50.40;;;;;;5029450;28;20394;-74
2022/11/20 12:27:33;;;;;;;30.03;19.03;;;6.00;51.70;;;;;;5029035;28;20261;-74
2022/11/20 12:30:03;;;;;;;28.00;18.90;;;5.60;52.60;;;;;;5027343;28;20211;-73
2022/11/20 12:32:49;;;;;;;32.27;19.20;;;5.30;53.60;;;;;;5028737;28;20266;-74
2022/11/20 12:35:31;;;;;;;29.43;19.63;;;5.00;54.50;;;;;;5031659;28;20298;-72
2022/11/20 12:38:18;;;;;;;30.80;19.13;;;4.80;55.20;;;;;;5030022;28;20225;-73
2022/11/20 12:40:51;;;;;;;29.33;18.23;;;4.60;55.80;;;;;;5031196;28;20214;-72
2022/11/20 12:46:23;;;;;;;25.77;16.90;;;4.20;57.50;;;;;;5031281;28;20206;-72
2022/11/20 12:49:18;;;;;;;28.60;17.20;;;4.00;58.10;;;;;;5023371;28;20600;-73
2022/11/20 12:52:14;;;;;;;29.60;18.40;;;3.90;58.50;;;;;;5014444;28;20553;-72
2022/11/20 12:55:01;;;;;;;26.63;16.77;;;3.80;59.10;;;;;;5032299;28;20289;-71
2022/11/20 12:57:34;;;;;;;26.07;16.23;;;3.70;59.40;;;;;;5032279;28;20240;-72
2022/11/20 13:00:19;;;;;;;26.63;16.90;;;3.60;60.10;;;;;;5032171;28;20230;-72
2022/11/20 13:03:07;;;;;;;27.50;17.33;;;3.60;60.50;;;;;;5030928;28;20206;-72
2022/11/20 13:05:42;;;;;;;30.20;16.70;;;3.50;61.00;;;;;;5032236;28;20207;-73
2022/11/20 13:08:20;;;;;;;29.00;17.27;;;3.60;61.40;;;;;;5025155;28;20202;-72
2022/11/20 13:10:50;;;;;;;25.93;17.17;;;3.60;61.70;;;;;;5029382;28;20902;-70
2022/11/20 13:13:23;;;;;;;28.50;17.10;;;3.50;62.20;;;;;;5034053;28;20214;-75
2022/11/20 13:15:56;;;;;;;26.77;17.17;;;3.40;62.60;;;;;;5026280;28;20203;-71
2022/11/20 13:18:23;;;;;;;27.33;17.57;;;3.40;63.80;;;;;;5026446;28;20678;-72